Time;durP1;ratioP1;P1;durP2;ratioP2;P2;SDS_P1;SDS_P2;PMS_P1;PMS_P2;Temp;Humidity;BMP_temperature;BMP_pressure;BME280_temperature;BME280_humidity;BME280_pressure;Samples;Min_cycle;Max_cycle;Signal;HPM_P1;HPM_P2
2023/10/09 00:01:51;;;;;;;9.98;5.25;;;19.00;99.90;;;;;;6098144;23;20412;-73
2023/10/09 00:04:16;;;;;;;9.85;5.75;;;18.70;99.90;;;;;;6122161;23;20053;-72
2023/10/09 00:06:43;;;;;;;15.00;5.45;;;18.40;99.90;;;;;;6122218;23;20021;-72
2023/10/09 00:11:44;;;;;;;10.98;5.50;;;18.40;99.90;;;;;;6122901;23;20021;-72
2023/10/09 00:14:15;;;;;;;9.27;5.20;;;18.20;99.90;;;;;;6122724;23;20010;-72
2023/10/09 00:16:48;;;;;;;12.20;6.13;;;17.40;99.90;;;;;;6122708;23;20014;-72
2023/10/09 00:19:26;;;;;;;13.88;6.88;;;18.40;99.90;;;;;;6122299;23;20017;-72
2023/10/09 00:21:55;;;;;;;11.25;6.32;;;17.30;1.00;;;;;;6124383;23;20080;-72
2023/10/09 00:24:23;;;;;;;12.88;6.43;;;17.40;1.00;;;;;;6098985;23;20010;-72
2023/10/09 00:26:56;;;;;;;11.88;6.85;;;17.90;1.00;;;;;;6122559;23;20010;-72
2023/10/09 00:29:22;;;;;;;11.82;7.15;;;17.70;1.00;;;;;;6122179;23;20363;-72
2023/10/09 00:32:01;;;;;;;14.52;8.10;;;18.00;1.00;;;;;;6122730;23;20089;-72
2023/10/09 00:34:28;;;;;;;14.93;8.32;;;18.30;1.00;;;;;;6122675;23;20014;-72
2023/10/09 00:36:55;;;;;;;14.23;8.45;;;18.30;1.00;;;;;;6122388;23;20016;-72
2023/10/09 00:39:41;;;;;;;14.80;8.05;;;17.60;1.00;;;;;;6122404;23;20010;-72
2023/10/09 00:42:07;;;;;;;16.08;10.30;;;18.40;1.00;;;;;;6118726;23;20459;-75
2023/10/09 00:44:40;;;;;;;21.33;12.05;;;18.50;1.00;;;;;;6122386;23;20013;-72
2023/10/09 00:47:20;;;;;;;17.98;10.35;;;18.50;1.00;;;;;;6122205;23;20014;-72
2023/10/09 00:50:00;;;;;;;19.40;11.93;;;18.10;1.00;;;;;;6121552;23;20025;-72
2023/10/09 00:52:43;;;;;;;20.02;11.40;;;17.80;1.00;;;;;;6122149;23;20084;-72
2023/10/09 00:55:14;;;;;;;19.08;11.75;;;18.20;1.00;;;;;;6121900;23;20087;-72
2023/10/09 00:57:59;;;;;;;21.33;11.98;;;17.40;1.00;;;;;;6121388;23;20009;-72
2023/10/09 01:00:32;;;;;;;20.45;12.38;;;17.30;9.90;;;;;;6096968;23;20018;-72
2023/10/09 01:03:40;;;;;;;20.50;12.32;;;18.40;22.80;;;;;;6097231;23;20025;-72
2023/10/09 01:08:47;;;;;;;21.13;13.85;;;18.50;59.10;;;;;;6120263;23;20427;-72
2023/10/09 01:11:18;;;;;;;21.05;13.93;;;17.90;62.10;;;;;;6121356;23;20406;-72
2023/10/09 01:16:18;;;;;;;21.63;13.75;;;17.60;90.10;;;;;;6122076;23;20112;-72
2023/10/09 01:18:50;;;;;;;26.17;15.45;;;18.30;95.90;;;;;;6121511;23;20017;-72
2023/10/09 01:21:31;;;;;;;26.17;14.68;;;18.10;99.90;;;;;;6097203;23;20029;-72
2023/10/09 01:24:03;;;;;;;24.70;15.15;;;18.50;99.90;;;;;;6097605;23;20100;-72
2023/10/09 01:26:40;;;;;;;23.85;15.35;;;18.00;99.90;;;;;;6122053;23;20014;-72
2023/10/09 01:29:16;;;;;;;22.73;15.65;;;18.10;99.90;;;;;;6123273;23;20017;-72
2023/10/09 01:31:54;;;;;;;24.70;16.13;;;17.50;99.90;;;;;;6121768;23;20356;-72
2023/10/09 01:34:49;;;;;;;28.58;15.95;;;17.50;99.90;;;;;;6121664;23;20021;-72
2023/10/09 01:37:19;;;;;;;24.42;16.17;;;18.40;99.90;;;;;;6121930;23;20455;-72
2023/10/09 01:39:52;;;;;;;23.10;15.25;;;17.50;99.90;;;;;;6121434;23;20045;-72
2023/10/09 01:42:45;;;;;;;23.33;16.15;;;18.30;99.90;;;;;;6120430;23;20094;-72
2023/10/09 01:47:51;;;;;;;24.42;16.80;;;18.20;99.90;;;;;;6123606;23;20025;-72
2023/10/09 01:50:24;;;;;;;26.83;17.52;;;17.90;99.90;;;;;;6096574;23;20013;-72
2023/10/09 01:52:51;;;;;;;26.00;17.45;;;18.20;99.90;;;;;;6097015;23;20010;-72
2023/10/09 01:58:05;;;;;;;24.87;17.23;;;18.70;99.90;;;;;;6119671;23;20025;-72
2023/10/09 02:00:42;;;;;;;25.63;17.13;;;18.00;99.90;;;;;;6120458;23;20337;-72
2023/10/09 02:03:23;;;;;;;25.27;17.55;;;18.50;99.90;;;;;;6118212;23;20014;-72
2023/10/09 02:05:50;;;;;;;25.40;16.58;;;18.50;99.90;;;;;;6120748;23;20010;-72
2023/10/09 02:08:26;;;;;;;29.58;18.10;;;17.50;99.90;;;;;;6117558;23;20022;-72
2023/10/09 02:10:55;;;;;;;24.90;16.88;;;18.30;99.90;;;;;;6118624;23;20046;-72
2023/10/09 02:13:29;;;;;;;25.33;16.85;;;17.30;99.90;;;;;;6120238;23;20021;-72
2023/10/09 02:16:13;;;;;;;27.08;17.90;;;17.50;99.90;;;;;;6121035;23;20439;-72
2023/10/09 02:18:39;;;;;;;25.08;16.15;;;18.10;99.90;;;;;;6121007;23;20076;-72
2023/10/09 02:24:26;;;;;;;22.98;16.27;;;18.50;99.90;;;;;;6120646;23;20104;-72
2023/10/09 02:26:27;;;;;;;26.33;16.58;;;18.60;99.90;;;;;;6120631;23;20030;-72
2023/10/09 02:28:58;;;;;;;23.83;16.77;;;18.50;99.90;;;;;;6122393;23;20029;-72
2023/10/09 02:31:26;;;;;;;24.98;16.85;;;17.50;99.90;;;;;;6120344;23;20064;-72
2023/10/09 02:33:55;;;;;;;26.52;16.67;;;17.80;99.90;;;;;;6120984;23;20116;-72
2023/10/09 02:36:22;;;;;;;25.67;17.13;;;18.70;99.90;;;;;;6120811;23;20013;-72
2023/10/09 02:38:48;;;;;;;27.08;17.00;;;17.60;99.90;;;;;;6120188;23;20017;-72
2023/10/09 02:41:20;;;;;;;23.90;17.52;;;18.20;99.90;;;;;;6119202;23;20404;-72
2023/10/09 02:43:55;;;;;;;26.45;18.33;;;18.10;99.90;;;;;;6096158;23;20018;-72
2023/10/09 02:46:28;;;;;;;25.20;17.00;;;18.60;99.90;;;;;;6119591;23;20499;-72
2023/10/09 02:48:56;;;;;;;21.70;14.75;;;17.50;99.90;;;;;;6095306;23;20006;-72
2023/10/09 02:54:41;;;;;;;26.60;15.85;;;18.70;99.90;;;;;;6123065;23;20025;-72
2023/10/09 02:56:56;;;;;;;23.08;15.05;;;17.70;99.90;;;;;;6117967;23;20068;-72
2023/10/09 02:59:23;;;;;;;25.08;15.85;;;17.50;99.90;;;;;;6118711;23;20467;-72
2023/10/09 03:01:50;;;;;;;23.25;15.98;;;18.50;99.90;;;;;;6120590;23;20018;-72
2023/10/09 03:04:15;;;;;;;22.80;14.20;;;18.30;99.90;;;;;;6120486;23;20014;-72
2023/10/09 03:06:51;;;;;;;22.15;14.85;;;18.30;99.90;;;;;;6122454;23;20471;-72
2023/10/09 03:09:30;;;;;;;24.05;15.10;;;18.40;99.90;;;;;;6120823;23;20462;-72
2023/10/09 03:12:02;;;;;;;20.52;13.50;;;18.50;99.90;;;;;;6096006;23;20043;-73
2023/10/09 03:14:32;;;;;;;20.83;12.40;;;17.50;99.90;;;;;;6122325;23;20017;-72
2023/10/09 03:16:59;;;;;;;23.65;14.38;;;18.10;99.90;;;;;;6120980;23;20097;-72
2023/10/09 03:19:29;;;;;;;18.50;13.07;;;18.50;99.90;;;;;;6119714;23;20349;-72
2023/10/09 03:21:58;;;;;;;20.08;11.98;;;17.90;99.90;;;;;;6121344;23;20009;-72
2023/10/09 03:24:27;;;;;;;20.38;12.55;;;18.50;99.90;;;;;;6120402;23;20021;-72
2023/10/09 03:26:55;;;;;;;17.27;11.23;;;18.40;99.90;;;;;;6120603;23;20014;-72
2023/10/09 03:29:22;;;;;;;17.77;11.48;;;17.50;99.90;;;;;;6120795;23;20010;-72
2023/10/09 03:31:50;;;;;;;17.65;11.48;;;17.80;99.90;;;;;;6096806;23;20020;-72
2023/10/09 03:34:16;;;;;;;16.92;10.52;;;18.60;99.90;;;;;;6098459;23;20013;-72
2023/10/09 03:36:43;;;;;;;23.30;11.05;;;18.80;99.90;;;;;;6124847;23;20456;-72
2023/10/09 03:39:24;;;;;;;18.50;10.55;;;18.80;99.90;;;;;;6124296;23;20041;-72
2023/10/09 03:41:54;;;;;;;17.10;8.73;;;17.70;99.90;;;;;;6123787;23;20014;-72
2023/10/09 03:44:20;;;;;;;14.13;8.40;;;18.70;99.90;;;;;;6126002;23;20013;-72
2023/10/09 03:46:46;;;;;;;14.10;7.60;;;18.50;99.90;;;;;;6125055;23;20041;-72
2023/10/09 03:49:13;;;;;;;13.15;7.47;;;17.60;99.90;;;;;;6123305;23;20197;-72
2023/10/09 03:51:39;;;;;;;15.88;6.75;;;18.70;99.90;;;;;;6124741;23;20510;-72
2023/10/09 03:54:08;;;;;;;15.85;7.47;;;19.80;99.90;;;;;;6125587;23;20329;-72
2023/10/09 03:56:34;;;;;;;12.35;6.78;;;18.40;99.90;;;;;;6099994;23;20014;-72
2023/10/09 03:59:02;;;;;;;12.40;6.63;;;17.80;99.90;;;;;;6123417;23;20352;-72
2023/10/09 04:01:28;;;;;;;12.27;6.88;;;18.90;99.90;;;;;;6124053;23;20014;-72
2023/10/09 04:04:01;;;;;;;10.98;5.80;;;18.70;99.90;;;;;;6124342;23;20012;-72
2023/10/09 04:06:37;;;;;;;12.85;6.53;;;18.70;99.90;;;;;;6099724;23;20021;-72
2023/10/09 04:09:51;;;;;;;14.27;6.63;;;18.60;99.90;;;;;;6099433;23;20014;-72
2023/10/09 04:15:01;;;;;;;13.13;6.57;;;18.80;99.90;;;;;;6123189;23;20017;-72
2023/10/09 04:22:50;;;;;;;12.43;5.82;;;18.50;99.90;;;;;;6122478;23;20017;-73
2023/10/09 04:25:25;;;;;;;13.18;6.57;;;18.70;99.90;;;;;;6099254;23;20026;-72
2023/10/09 04:30:42;;;;;;;13.57;5.80;;;18.50;1.00;;;;;;6123585;23;20014;-73
2023/10/09 04:33:28;;;;;;;13.93;6.63;;;18.60;1.00;;;;;;6123180;23;20089;-73
2023/10/09 04:44:35;;;;;;;17.90;7.50;;;17.80;1.00;;;;;;6121622;23;20022;-72
2023/10/09 04:55:19;;;;;;;15.85;6.90;;;18.90;1.00;;;;;;6122146;23;20072;-73
2023/10/09 04:58:00;;;;;;;18.25;7.95;;;18.60;1.00;;;;;;6120985;23;20084;-73
2023/10/09 05:02:57;;;;;;;14.95;6.57;;;19.00;1.00;;;;;;6120099;23;20464;-73
2023/10/09 05:08:45;;;;;;;18.83;7.05;;;18.70;1.00;;;;;;6121628;23;20014;-73
2023/10/09 05:18:41;;;;;;;14.85;6.95;;;18.70;1.00;;;;;;6118274;23;20022;-73
2023/10/09 05:23:48;;;;;;;16.17;6.78;;;18.90;1.00;;;;;;6120509;23;20021;-73
2023/10/09 05:29:18;;;;;;;15.52;6.63;;;18.60;1.00;;;;;;6120291;23;20022;-73
2023/10/09 05:31:56;;;;;;;20.35;7.65;;;17.70;1.00;;;;;;6121171;23;20084;-73
2023/10/09 05:34:22;;;;;;;17.60;6.75;;;19.50;1.00;;;;;;6097247;23;20009;-73
2023/10/09 05:36:49;;;;;;;14.73;6.93;;;18.70;1.00;;;;;;6122223;23;20010;-73
2023/10/09 05:39:18;;;;;;;18.30;7.38;;;18.10;1.00;;;;;;6121542;23;20010;-73
2023/10/09 05:41:59;;;;;;;13.50;6.55;;;17.80;1.00;;;;;;6097263;23;20017;-73
2023/10/09 05:51:10;;;;;;;15.13;6.50;;;18.90;1.00;;;;;;6121612;23;19913;-73
2023/10/09 06:03:26;;;;;;;13.18;6.32;;;18.40;1.00;;;;;;6119395;23;20468;-73
2023/10/09 06:08:27;;;;;;;14.52;6.22;;;18.80;1.00;;;;;;6117467;23;20454;-73
2023/10/09 06:11:06;;;;;;;15.10;6.47;;;18.90;1.00;;;;;;6115260;23;20093;-74
2023/10/09 06:13:37;;;;;;;16.55;6.32;;;18.90;1.00;;;;;;6119637;23;20010;-74
2023/10/09 06:16:29;;;;;;;13.48;6.25;;;18.20;1.00;;;;;;6121839;23;20018;-74
2023/10/09 06:19:07;;;;;;;13.30;6.82;;;18.40;1.00;;;;;;6121568;23;20017;-74
2023/10/09 06:24:18;;;;;;;;;;;18.60;1.00;;;;;;6123777;23;20017;-74
2023/10/09 06:29:35;;;;;;;12.88;6.30;;;18.50;1.00;;;;;;6121088;23;20024;-74
2023/10/09 06:34:51;;;;;;;14.23;6.30;;;18.60;1.00;;;;;;6121346;23;20045;-74
2023/10/09 06:39:50;;;;;;;14.38;6.10;;;18.70;1.00;;;;;;6120739;23;20025;-75
2023/10/09 06:45:16;;;;;;;12.60;5.88;;;18.60;1.00;;;;;;6121558;23;20018;-74
2023/10/09 06:47:53;;;;;;;11.93;5.32;;;18.80;1.00;;;;;;6121233;23;20017;-75
2023/10/09 06:55:51;;;;;;;16.65;6.25;;;17.90;1.00;;;;;;6121603;23;20022;-74
2023/10/09 06:58:28;;;;;;;17.42;7.00;;;18.00;1.00;;;;;;6096880;23;20368;-73
2023/10/09 07:03:32;;;;;;;22.52;7.28;;;18.50;1.00;;;;;;6121595;23;20096;-74
2023/10/09 07:06:51;;;;;;;15.15;6.90;;;18.20;1.00;;;;;;6121428;23;20014;-74
2023/10/09 07:09:15;;;;;;;18.35;7.15;;;18.90;1.00;;;;;;6109010;23;20017;-74
2023/10/09 07:17:15;;;;;;;11.75;5.90;;;18.60;1.00;;;;;;6121711;23;20018;-74
2023/10/09 07:24:57;;;;;;;19.75;7.22;;;18.30;1.00;;;;;;6121321;23;20048;-74
2023/10/09 07:38:23;;;;;;;13.60;6.07;;;19.20;17.30;;;;;;6121346;23;20018;-74
2023/10/09 07:43:39;;;;;;;14.60;6.13;;;17.70;10.70;;;;;;6121016;23;20085;-74
2023/10/09 07:48:53;;;;;;;15.60;6.75;;;17.80;21.70;;;;;;6120907;23;20076;-73
2023/10/09 07:51:23;;;;;;;11.32;5.65;;;18.90;16.90;;;;;;6096994;23;20016;-73
2023/10/09 07:54:08;;;;;;;14.90;6.20;;;18.50;30.00;;;;;;6121393;23;20462;-73
2023/10/09 07:56:41;;;;;;;14.80;6.03;;;18.80;27.40;;;;;;6121104;23;20096;-74
2023/10/09 07:59:10;;;;;;;12.45;6.43;;;18.60;41.70;;;;;;6120607;23;20028;-74
2023/10/09 08:02:02;;;;;;;17.35;6.20;;;17.70;35.90;;;;;;6096396;23;20022;-73
2023/10/09 08:04:39;;;;;;;15.48;7.03;;;18.90;46.00;;;;;;6121026;23;20033;-73
2023/10/09 08:07:34;;;;;;;15.38;6.68;;;18.50;44.90;;;;;;6121706;23;20006;-73
2023/10/09 08:15:20;;;;;;;16.73;6.25;;;18.60;44.60;;;;;;6121286;23;20022;-73
2023/10/09 08:18:09;;;;;;;13.32;5.75;;;18.50;57.60;;;;;;6120842;23;20375;-73
2023/10/09 08:23:33;;;;;;;14.52;6.07;;;18.50;85.30;;;;;;6123184;23;20018;-73
2023/10/09 08:26:14;;;;;;;16.15;5.68;;;18.50;70.40;;;;;;6122747;23;20014;-73
2023/10/09 08:28:43;;;;;;;16.65;5.53;;;17.80;90.30;;;;;;6122755;23;20057;-73
2023/10/09 08:31:34;;;;;;;18.60;5.70;;;17.80;80.50;;;;;;6122429;23;20011;-73
2023/10/09 08:34:01;;;;;;;13.43;5.70;;;18.80;91.80;;;;;;6122801;23;20348;-73
2023/10/09 08:36:36;;;;;;;10.30;5.40;;;17.70;98.30;;;;;;6122965;23;20600;-73
2023/10/09 08:39:17;;;;;;;14.48;5.15;;;18.60;91.30;;;;;;6122893;23;20022;-73
2023/10/09 08:41:43;;;;;;;14.40;5.72;;;18.70;97.60;;;;;;6097737;23;20026;-73
2023/10/09 08:44:14;;;;;;;15.02;5.60;;;18.50;99.90;;;;;;6122972;23;20494;-73
2023/10/09 08:46:42;;;;;;;14.98;6.03;;;19.00;99.90;;;;;;6097757;23;20025;-73
2023/10/09 08:49:10;;;;;;;17.50;5.03;;;18.60;99.90;;;;;;6122467;23;20081;-74
2023/10/09 08:51:37;;;;;;;15.73;5.63;;;18.80;99.90;;;;;;6098205;23;20022;-73
2023/10/09 08:54:04;;;;;;;11.43;4.95;;;18.90;99.90;;;;;;6123019;23;20480;-73
2023/10/09 08:56:30;;;;;;;13.05;5.82;;;18.70;99.90;;;;;;6122859;23;20077;-73
2023/10/09 08:58:58;;;;;;;13.73;4.97;;;18.60;99.90;;;;;;6121868;23;20072;-73
2023/10/09 09:01:24;;;;;;;12.75;5.82;;;19.00;99.90;;;;;;6122821;23;20018;-73
2023/10/09 09:03:51;;;;;;;12.60;5.80;;;18.90;99.90;;;;;;6122832;23;20029;-73
2023/10/09 09:06:21;;;;;;;13.07;5.82;;;18.50;99.90;;;;;;6122665;23;20014;-74
2023/10/09 09:08:47;;;;;;;10.90;5.68;;;18.60;99.90;;;;;;6097933;23;20126;-73
2023/10/09 09:11:22;;;;;;;19.73;6.28;;;18.70;99.90;;;;;;6122157;23;20053;-73
2023/10/09 09:14:22;;;;;;;16.23;5.28;;;18.50;99.90;;;;;;6123305;23;20046;-73
2023/10/09 09:16:48;;;;;;;12.90;5.53;;;18.90;99.90;;;;;;6122339;23;20290;-74
2023/10/09 09:19:17;;;;;;;15.93;6.13;;;18.90;99.90;;;;;;6124045;23;20178;-73
2023/10/09 09:21:59;;;;;;;15.07;5.75;;;18.70;99.90;;;;;;6101548;23;20014;-73
2023/10/09 09:26:59;;;;;;;17.25;6.03;;;19.00;99.90;;;;;;6127505;23;20025;-73
2023/10/09 09:29:37;;;;;;;10.73;5.00;;;18.80;99.90;;;;;;6127623;23;20010;-73
2023/10/09 09:32:19;;;;;;;14.50;5.60;;;19.10;99.90;;;;;;6098233;23;20096;-73
2023/10/09 09:34:54;;;;;;;13.48;5.45;;;18.60;99.90;;;;;;6098207;23;20010;-73
2023/10/09 09:37:20;;;;;;;;;;;18.80;99.90;;;;;;6098945;23;20018;-73
2023/10/09 09:39:49;;;;;;;10.43;5.20;;;18.60;99.90;;;;;;6096838;23;20426;-73
2023/10/09 09:42:17;;;;;;;12.30;5.50;;;18.70;99.90;;;;;;6097728;23;20487;-73
2023/10/09 09:44:45;;;;;;;12.85;5.30;;;18.40;99.90;;;;;;6097695;23;20089;-73
2023/10/09 09:47:23;;;;;;;16.85;5.57;;;18.60;99.90;;;;;;6097890;23;20064;-73
2023/10/09 09:49:52;;;;;;;13.23;5.47;;;18.00;99.90;;;;;;6072930;23;20021;-73
2023/10/09 09:52:18;;;;;;;17.10;6.05;;;18.90;99.90;;;;;;6073970;23;20038;-72
2023/10/09 09:54:44;;;;;;;13.98;6.80;;;18.90;99.90;;;;;;6097442;23;20010;-73
2023/10/09 09:57:15;;;;;;;15.07;5.80;;;18.70;99.90;;;;;;6097729;23;20451;-73
2023/10/09 09:59:49;;;;;;;16.05;6.53;;;18.10;99.90;;;;;;6097459;23;20053;-73
2023/10/09 10:02:29;;;;;;;13.68;6.00;;;18.50;99.90;;;;;;6097254;23;20049;-73
2023/10/09 10:04:58;;;;;;;17.83;6.70;;;18.80;99.90;;;;;;6097538;23;20463;-73
2023/10/09 10:07:28;;;;;;;18.00;6.38;;;18.90;99.90;;;;;;6097677;23;20010;-73
2023/10/09 10:09:57;;;;;;;14.45;6.32;;;19.00;99.90;;;;;;6072700;23;20129;-73
2023/10/09 10:13:01;;;;;;;12.68;5.45;;;19.00;99.90;;;;;;6097563;23;20356;-73
2023/10/09 10:16:09;;;;;;;14.80;5.25;;;19.00;99.90;;;;;;6073723;23;20065;-74
2023/10/09 10:18:52;;;;;;;12.63;4.88;;;18.60;99.90;;;;;;6073588;23;20009;-73
2023/10/09 10:21:18;;;;;;;15.95;5.80;;;18.60;99.90;;;;;;6096939;23;20093;-73
2023/10/09 10:23:47;;;;;;;14.55;5.65;;;19.20;99.90;;;;;;6097489;23;20018;-73
2023/10/09 10:26:25;;;;;;;14.52;5.40;;;18.60;99.90;;;;;;6097178;23;20028;-73
2023/10/09 10:29:55;;;;;;;22.45;6.28;;;18.30;99.90;;;;;;6097142;23;20099;-73
2023/10/09 10:32:18;;;;;;;14.68;5.43;;;18.90;99.90;;;;;;6094294;23;20025;-73
2023/10/09 10:34:55;;;;;;;13.70;5.43;;;18.70;99.90;;;;;;6073361;23;20333;-74
2023/10/09 10:37:37;;;;;;;12.20;5.18;;;18.60;99.90;;;;;;6097370;23;20360;-73
2023/10/09 10:40:13;;;;;;;12.68;5.47;;;18.60;99.90;;;;;;6096392;23;20025;-73
2023/10/09 10:45:36;;;;;;;10.90;4.82;;;18.90;99.90;;;;;;6097520;23;20356;-73
2023/10/09 10:48:07;;;;;;;15.65;5.13;;;18.80;99.90;;;;;;6096905;23;20457;-73
2023/10/09 10:50:36;;;;;;;10.05;4.60;;;18.70;99.90;;;;;;6096801;23;20364;-73
2023/10/09 10:53:47;;;;;;;9.65;4.50;;;18.90;99.90;;;;;;6123045;23;20348;-73
2023/10/09 10:59:41;;;;;;;9.57;4.30;;;18.80;99.90;;;;;;6096844;23;20084;-73
2023/10/09 11:01:58;;;;;;;12.43;4.65;;;19.00;99.90;;;;;;6084115;23;20018;-73
2023/10/09 11:07:37;;;;;;;11.00;3.73;;;18.50;99.90;;;;;;6097161;23;20097;-73
2023/10/09 11:15:37;;;;;;;12.85;4.43;;;18.20;99.90;;;;;;6097512;23;20029;-73
2023/10/09 11:18:07;;;;;;;10.80;4.38;;;18.60;99.90;;;;;;6097084;23;20014;-73
2023/10/09 11:20:53;;;;;;;11.00;4.22;;;18.50;99.90;;;;;;6096434;23;20025;-73
2023/10/09 11:23:29;;;;;;;9.07;3.60;;;18.90;99.90;;;;;;6073205;23;20037;-73
2023/10/09 11:26:20;;;;;;;10.45;3.92;;;18.80;99.90;;;;;;6096740;23;20018;-74
2023/10/09 11:28:49;;;;;;;9.02;3.28;;;18.80;99.90;;;;;;6096522;23;20526;-73
2023/10/09 11:31:16;;;;;;;10.65;4.03;;;18.80;99.90;;;;;;6096282;23;20010;-73
2023/10/09 11:33:53;;;;;;;9.30;3.33;;;18.60;99.90;;;;;;6096919;23;20021;-73
2023/10/09 11:36:32;;;;;;;9.95;4.40;;;18.70;99.90;;;;;;6096967;23;20017;-73
2023/10/09 11:39:18;;;;;;;8.00;3.47;;;18.80;99.90;;;;;;6096376;23;20025;-73
2023/10/09 11:41:44;;;;;;;11.80;4.35;;;18.00;99.90;;;;;;6072747;23;20478;-73
2023/10/09 11:44:23;;;;;;;10.15;3.97;;;18.50;99.90;;;;;;6096618;23;20022;-73
2023/10/09 11:52:35;;;;;;;11.00;3.67;;;18.70;99.90;;;;;;6096804;23;20014;-73
2023/10/09 11:55:14;;;;;;;12.85;3.65;;;18.90;99.90;;;;;;6098560;23;20018;-73
2023/10/09 11:57:41;;;;;;;11.82;3.60;;;18.90;99.90;;;;;;6098670;23;20020;-73
2023/10/09 12:02:52;;;;;;;;;;;18.90;99.90;;;;;;6099260;23;20093;-73
2023/10/09 12:05:18;;;;;;;7.28;2.85;;;18.60;99.90;;;;;;6098699;23;20488;-73
2023/10/09 12:07:55;;;;;;;9.02;3.33;;;18.30;99.90;;;;;;6098803;23;20014;-73
2023/10/09 12:10:25;;;;;;;10.10;3.03;;;17.90;99.90;;;;;;6097980;23;20045;-73
2023/10/09 12:12:57;;;;;;;10.45;3.33;;;18.60;99.90;;;;;;6075614;23;20014;-73
2023/10/09 12:15:24;;;;;;;10.50;2.80;;;18.80;99.90;;;;;;6098717;23;20014;-73
2023/10/09 12:17:49;;;;;;;8.00;3.20;;;18.80;99.90;;;;;;6098365;23;20433;-73
2023/10/09 12:20:31;;;;;;;11.88;3.35;;;18.80;99.90;;;;;;6098018;23;20052;-73
2023/10/09 12:23:01;;;;;;;9.38;4.13;;;19.00;99.90;;;;;;6074572;23;20014;-73
2023/10/09 12:25:31;;;;;;;10.07;3.20;;;17.90;99.90;;;;;;6098748;23;20022;-73
2023/10/09 12:27:57;;;;;;;9.77;3.20;;;18.70;99.90;;;;;;6074380;23;20025;-73
2023/10/09 12:30:26;;;;;;;10.52;3.35;;;18.60;99.90;;;;;;6074199;23;20017;-73
2023/10/09 12:32:58;;;;;;;8.10;3.25;;;19.00;99.90;;;;;;6098416;23;20056;-73
2023/10/09 12:35:25;;;;;;;11.23;3.72;;;18.80;99.90;;;;;;6098576;23;20046;-73
2023/10/09 12:37:54;;;;;;;10.40;3.53;;;18.80;99.90;;;;;;6098202;23;20009;-73
2023/10/09 12:40:30;;;;;;;10.35;3.55;;;18.70;99.90;;;;;;6097549;23;20024;-73
2023/10/09 12:42:58;;;;;;;12.90;3.90;;;18.10;99.90;;;;;;6074450;23;20017;-73
2023/10/09 12:45:26;;;;;;;9.93;3.80;;;18.80;99.90;;;;;;6098699;23;20014;-73
2023/10/09 12:48:09;;;;;;;9.15;3.42;;;18.70;99.90;;;;;;6098364;23;20085;-73
2023/10/09 12:50:41;;;;;;;13.88;3.17;;;18.80;99.90;;;;;;6097906;23;20006;-73
2023/10/09 12:53:07;;;;;;;10.20;3.35;;;18.80;99.90;;;;;;6097700;23;20013;-73
2023/10/09 12:55:41;;;;;;;11.00;3.28;;;18.80;99.90;;;;;;6098343;23;20061;-74
2023/10/09 12:58:08;;;;;;;8.43;3.30;;;18.10;99.90;;;;;;6097983;23;20101;-73
2023/10/09 13:00:37;;;;;;;10.50;3.25;;;19.00;99.90;;;;;;6097883;23;20424;-73
2023/10/09 13:03:16;;;;;;;12.70;3.85;;;19.10;99.90;;;;;;6098229;23;20508;-75
2023/10/09 13:05:53;;;;;;;10.65;3.28;;;18.70;99.90;;;;;;6097592;23;20040;-74
2023/10/09 13:08:21;;;;;;;15.23;3.63;;;18.70;99.90;;;;;;6097680;23;20010;-74
2023/10/09 13:10:58;;;;;;;9.80;3.50;;;18.70;99.90;;;;;;6097376;23;20463;-74
2023/10/09 13:13:39;;;;;;;12.18;3.72;;;18.80;99.90;;;;;;6097931;23;20016;-73
2023/10/09 13:16:11;;;;;;;11.05;3.47;;;18.50;99.90;;;;;;6098221;23;20010;-73
2023/10/09 13:18:37;;;;;;;9.55;3.28;;;19.00;99.90;;;;;;6098166;23;20460;-74
2023/10/09 13:21:04;;;;;;;10.52;3.35;;;17.90;99.90;;;;;;6097565;23;20356;-73
2023/10/09 13:23:40;;;;;;;8.13;2.97;;;18.20;99.90;;;;;;6074117;23;20017;-73
2023/10/09 13:26:17;;;;;;;10.85;3.20;;;18.50;99.90;;;;;;6123783;23;20104;-74
2023/10/09 13:28:48;;;;;;;8.07;2.80;;;18.70;99.90;;;;;;6098037;23;20088;-73
2023/10/09 13:31:14;;;;;;;11.63;4.15;;;18.70;99.90;;;;;;6097342;23;20021;-74
2023/10/09 13:33:41;;;;;;;8.30;3.03;;;18.70;99.90;;;;;;6097884;23;20017;-73
2023/10/09 13:36:16;;;;;;;12.52;3.65;;;18.80;99.90;;;;;;6097653;23;20069;-73
2023/10/09 13:38:45;;;;;;;7.60;2.60;;;18.80;99.90;;;;;;6097870;23;20329;-74
2023/10/09 13:41:12;;;;;;;9.32;2.85;;;18.90;99.90;;;;;;6072883;23;20014;-74
2023/10/09 13:43:42;;;;;;;10.05;3.40;;;18.80;99.90;;;;;;6097935;23;20013;-74
2023/10/09 13:46:12;;;;;;;6.75;2.72;;;18.70;99.90;;;;;;6097491;23;20511;-73
2023/10/09 13:48:45;;;;;;;8.18;2.83;;;18.30;99.90;;;;;;6073934;23;20089;-73
2023/10/09 13:51:17;;;;;;;8.13;3.08;;;18.40;99.90;;;;;;6099780;23;20028;-74
2023/10/09 13:53:47;;;;;;;8.70;3.95;;;19.00;99.90;;;;;;6100440;23;20464;-73
2023/10/09 13:56:21;;;;;;;9.55;3.17;;;18.90;99.90;;;;;;6125164;23;20025;-74
2023/10/09 13:58:54;;;;;;;10.98;3.72;;;18.70;99.90;;;;;;6097969;23;20017;-73
2023/10/09 14:01:26;;;;;;;6.35;2.72;;;18.70;98.50;;;;;;6073260;23;20068;-73
2023/10/09 14:04:01;;;;;;;9.63;3.30;;;19.10;94.00;;;;;;6097569;23;20045;-74
2023/10/09 14:06:30;;;;;;;7.65;2.75;;;18.80;89.30;;;;;;6073396;23;20093;-73
2023/10/09 14:09:05;;;;;;;8.45;3.40;;;18.70;75.00;;;;;;6073098;23;20060;-73
2023/10/09 14:11:37;;;;;;;11.68;2.97;;;18.90;77.30;;;;;;6073059;23;20089;-73
2023/10/09 14:14:09;;;;;;;8.00;2.97;;;19.00;72.80;;;;;;6097832;23;20329;-73
2023/10/09 14:16:37;;;;;;;8.85;3.42;;;18.60;56.20;;;;;;6073419;23;20526;-73
2023/10/09 14:19:07;;;;;;;8.90;2.95;;;19.00;61.40;;;;;;6097475;23;20022;-73
2023/10/09 14:21:37;;;;;;;8.48;2.63;;;18.10;26.00;;;;;;6073588;23;20021;-74
2023/10/09 14:24:15;;;;;;;6.32;2.42;;;18.70;35.60;;;;;;6097695;23;20049;-73
2023/10/09 14:26:41;;;;;;;6.70;2.63;;;18.80;28.50;;;;;;6097373;23;20018;-74
2023/10/09 14:29:07;;;;;;;8.85;2.30;;;18.90;18.30;;;;;;6072974;23;20014;-73
2023/10/09 14:31:38;;;;;;;6.40;2.40;;;18.90;7.60;;;;;;6097016;23;20014;-74
2023/10/09 14:34:05;;;;;;;8.05;2.53;;;18.70;1.00;;;;;;6097521;23;20014;-74
2023/10/09 14:36:34;;;;;;;5.75;2.25;;;18.80;1.00;;;;;;6073120;23;20033;-73
2023/10/09 14:39:00;;;;;;;11.23;2.80;;;18.80;1.00;;;;;;6096797;23;20037;-74
2023/10/09 14:41:27;;;;;;;6.18;2.40;;;18.80;1.00;;;;;;6096614;23;20018;-74
2023/10/09 14:43:54;;;;;;;8.52;2.55;;;18.60;1.00;;;;;;6073634;23;20464;-74
2023/10/09 14:46:25;;;;;;;9.23;2.63;;;18.80;1.00;;;;;;6073007;23;20081;-73
2023/10/09 14:48:54;;;;;;;7.93;2.67;;;18.70;1.00;;;;;;6097346;23;20009;-74
2023/10/09 14:51:27;;;;;;;7.50;2.55;;;18.90;1.00;;;;;;6096589;23;20013;-73
2023/10/09 14:54:03;;;;;;;8.45;2.83;;;18.40;1.00;;;;;;6072777;23;20061;-73
2023/10/09 14:56:29;;;;;;;8.00;2.28;;;18.60;1.00;;;;;;6073392;23;20014;-73
2023/10/09 14:58:58;;;;;;;8.05;2.45;;;18.20;1.00;;;;;;6073216;23;20016;-73
2023/10/09 15:01:25;;;;;;;7.85;2.60;;;18.80;1.00;;;;;;6072005;23;20152;-73
2023/10/09 15:03:56;;;;;;;8.40;2.60;;;18.40;1.00;;;;;;6094166;23;20014;-73
2023/10/09 15:06:24;;;;;;;10.80;2.78;;;18.60;1.00;;;;;;6095790;23;20045;-73
2023/10/09 15:08:50;;;;;;;8.43;2.60;;;18.40;1.00;;;;;;6096457;23;20014;-73
2023/10/09 15:11:16;;;;;;;12.63;2.63;;;17.90;1.00;;;;;;6093969;23;20014;-73
2023/10/09 15:13:41;;;;;;;9.52;3.10;;;18.60;1.00;;;;;;6072657;23;20010;-73
2023/10/09 15:16:07;;;;;;;8.95;2.05;;;18.70;1.00;;;;;;6097179;23;20032;-73
2023/10/09 15:18:33;;;;;;;6.32;2.33;;;18.60;1.00;;;;;;6095929;23;20273;-74
2023/10/09 15:21:00;;;;;;;7.97;2.67;;;18.70;1.00;;;;;;6095394;23;20579;-73
2023/10/09 15:23:26;;;;;;;7.72;2.50;;;17.80;1.00;;;;;;6096815;23;20157;-73
2023/10/09 15:25:52;;;;;;;8.45;2.45;;;18.70;1.00;;;;;;6096767;23;20451;-74
2023/10/09 15:28:19;;;;;;;8.50;2.40;;;17.90;1.00;;;;;;6093950;23;20010;-73
2023/10/09 15:30:47;;;;;;;6.80;2.22;;;18.80;1.00;;;;;;6095663;23;20455;-73
2023/10/09 15:33:16;;;;;;;10.65;2.53;;;18.00;99.90;;;;;;6105297;23;20498;-73
2023/10/09 15:35:46;;;;;;;7.30;2.38;;;18.80;99.90;;;;;;6120882;23;20021;-73
2023/10/09 15:38:13;;;;;;;7.82;2.28;;;18.80;99.90;;;;;;6096220;23;20013;-74
2023/10/09 15:40:42;;;;;;;8.50;2.50;;;18.50;99.90;;;;;;6120272;23;20400;-74
2023/10/09 15:43:07;;;;;;;8.35;2.72;;;18.50;99.90;;;;;;6097435;23;20018;-73
2023/10/09 15:45:41;;;;;;;7.28;2.40;;;17.80;99.90;;;;;;6121150;23;20048;-73
2023/10/09 15:48:07;;;;;;;6.63;2.47;;;18.70;99.90;;;;;;6121026;23;20483;-74
2023/10/09 15:50:34;;;;;;;9.05;2.58;;;18.80;99.90;;;;;;6120147;23;20014;-73
2023/10/09 15:53:03;;;;;;;6.78;2.15;;;18.70;99.90;;;;;;6121004;23;20016;-73
2023/10/09 15:55:29;;;;;;;6.70;2.33;;;18.40;99.90;;;;;;6120724;23;20452;-73